Time;durP1;ratioP1;P1;durP2;ratioP2;P2;SDS_P1;SDS_P2;PMS_P1;PMS_P2;Temp;Humidity;BMP_temperature;BMP_pressure;BME280_temperature;BME280_humidity;BME280_pressure;Samples;Min_cycle;Max_cycle;Signal;HPM_P1;HPM_P2
2022/03/14 00:00:07;;;;;;;2.97;1.52;;;18.10;54.60;;;;;;5028644;28;20022;-61
2022/03/14 00:02:34;;;;;;;5.63;1.90;;;18.10;54.60;;;;;;5027329;28;20030;-61
2022/03/14 00:05:03;;;;;;;4.82;1.83;;;18.00;54.50;;;;;;5026632;28;20112;-62
2022/03/14 00:07:30;;;;;;;4.97;1.73;;;18.00;54.70;;;;;;5026251;28;20071;-61
2022/03/14 00:09:56;;;;;;;3.17;1.73;;;18.10;54.70;;;;;;5028154;28;20053;-61
2022/03/14 00:12:23;;;;;;;3.47;1.75;;;18.00;54.80;;;;;;5026599;28;20056;-60
2022/03/14 00:14:53;;;;;;;2.03;1.38;;;18.00;54.70;;;;;;5019819;28;20047;-61
2022/03/14 00:17:19;;;;;;;4.30;1.70;;;18.00;54.80;;;;;;5027003;28;20037;-61
2022/03/14 00:19:45;;;;;;;3.47;1.52;;;18.00;54.80;;;;;;5008333;28;20025;-61
2022/03/14 00:22:11;;;;;;;3.70;1.77;;;18.00;54.80;;;;;;5023990;28;20358;-60
2022/03/14 00:24:36;;;;;;;4.47;1.38;;;18.00;54.90;;;;;;5027671;28;20742;-61
2022/03/14 00:27:02;;;;;;;4.57;1.90;;;18.00;54.70;;;;;;5027144;28;20488;-61
2022/03/14 00:29:28;;;;;;;3.60;1.58;;;18.00;54.70;;;;;;5026167;28;20025;-62
2022/03/14 00:31:53;;;;;;;3.67;1.50;;;18.00;54.90;;;;;;5025597;28;20033;-61
2022/03/14 00:34:19;;;;;;;4.03;1.83;;;18.00;54.90;;;;;;5026734;28;20041;-61
2022/03/14 00:36:47;;;;;;;4.72;2.08;;;18.00;54.90;;;;;;5026833;28;20014;-61
2022/03/14 00:39:12;;;;;;;3.10;1.52;;;18.00;54.90;;;;;;5026970;28;20033;-61
2022/03/14 00:41:38;;;;;;;3.20;1.70;;;18.00;54.90;;;;;;5026301;28;20447;-60
2022/03/14 00:44:04;;;;;;;6.18;2.22;;;17.90;54.90;;;;;;5027834;28;20041;-61
2022/03/14 00:46:31;;;;;;;4.43;1.77;;;18.00;55.00;;;;;;5026330;28;20034;-61
2022/03/14 00:48:56;;;;;;;3.13;1.60;;;17.90;55.00;;;;;;5027605;28;20080;-62
2022/03/14 00:51:22;;;;;;;2.58;1.40;;;17.90;55.00;;;;;;5027706;28;20053;-61
2022/03/14 00:53:47;;;;;;;2.53;1.30;;;17.90;55.00;;;;;;5027276;28;20033;-59
2022/03/14 00:56:17;;;;;;;2.83;1.50;;;17.90;55.10;;;;;;5023022;28;20780;-61
2022/03/14 00:58:43;;;;;;;2.58;1.45;;;17.90;55.20;;;;;;5014888;28;20403;-61
2022/03/14 01:01:08;;;;;;;3.42;1.40;;;17.90;55.20;;;;;;5008294;28;20022;-60
2022/03/14 01:03:35;;;;;;;3.05;1.60;;;17.90;55.10;;;;;;5022012;28;20087;-61
2022/03/14 01:06:02;;;;;;;3.67;1.77;;;17.90;55.20;;;;;;5027834;28;20022;-61
2022/03/14 01:08:28;;;;;;;2.53;1.20;;;17.90;55.20;;;;;;5027663;28;20495;-60
2022/03/14 01:10:53;;;;;;;5.18;1.90;;;17.90;55.20;;;;;;5027328;28;20025;-61
2022/03/14 01:13:19;;;;;;;2.95;1.40;;;17.80;55.20;;;;;;5027729;28;20026;-61
2022/03/14 01:15:44;;;;;;;3.30;1.65;;;17.90;55.30;;;;;;5027537;28;20484;-61
2022/03/14 01:18:10;;;;;;;3.38;1.60;;;17.90;55.30;;;;;;5026936;28;20048;-61
2022/03/14 01:20:35;;;;;;;2.92;1.33;;;17.80;55.20;;;;;;5027682;28;20065;-61
2022/03/14 01:23:01;;;;;;;3.75;1.83;;;17.90;55.30;;;;;;5026747;28;20087;-61
2022/03/14 01:25:27;;;;;;;3.20;1.33;;;17.80;55.30;;;;;;5027455;28;20047;-61
2022/03/14 01:27:54;;;;;;;2.83;1.48;;;17.80;55.30;;;;;;5027417;28;20083;-62
2022/03/14 01:30:20;;;;;;;2.70;1.27;;;17.80;55.20;;;;;;5031202;28;20057;-61
2022/03/14 01:32:46;;;;;;;3.17;1.20;;;17.80;55.20;;;;;;5030949;28;20100;-61
2022/03/14 01:35:11;;;;;;;2.58;1.58;;;17.80;55.30;;;;;;5030619;28;20041;-61
2022/03/14 01:37:37;;;;;;;2.78;1.40;;;17.80;55.30;;;;;;5025597;28;20484;-61
2022/03/14 01:40:03;;;;;;;2.67;1.33;;;17.80;55.40;;;;;;5029298;28;20021;-61
2022/03/14 01:42:29;;;;;;;3.28;1.50;;;17.80;55.40;;;;;;5030710;28;20025;-61
2022/03/14 01:44:55;;;;;;;2.47;1.35;;;17.80;55.40;;;;;;5021900;28;20053;-61
2022/03/14 01:47:21;;;;;;;2.33;1.33;;;17.80;55.40;;;;;;5030916;28;20040;-61
2022/03/14 01:49:49;;;;;;;3.83;1.60;;;17.80;55.50;;;;;;5030111;28;20025;-61
2022/03/14 01:52:15;;;;;;;2.28;1.13;;;17.70;55.40;;;;;;5030827;28;20099;-61
2022/03/14 01:54:41;;;;;;;3.63;1.45;;;17.70;55.40;;;;;;5030786;28;20084;-61
2022/03/14 01:57:08;;;;;;;3.65;1.40;;;17.70;55.50;;;;;;5030431;28;20017;-62
2022/03/14 01:59:34;;;;;;;2.88;1.40;;;17.70;55.50;;;;;;5029461;28;20104;-60
2022/03/14 02:02:00;;;;;;;2.63;1.52;;;17.70;55.60;;;;;;5030820;28;20212;-61
2022/03/14 02:04:26;;;;;;;2.85;1.33;;;17.70;55.50;;;;;;5030474;28;20706;-61
2022/03/14 02:06:53;;;;;;;3.13;1.48;;;17.70;55.50;;;;;;5030536;28;20032;-61
2022/03/14 02:09:20;;;;;;;2.88;1.50;;;17.70;55.50;;;;;;5029681;28;20053;-61
2022/03/14 02:12:00;;;;;;;2.53;1.27;;;17.70;55.50;;;;;;5029347;28;20034;-61
2022/03/14 02:14:25;;;;;;;;;;;17.70;55.60;;;;;;5014464;28;20045;-61
2022/03/14 02:16:51;;;;;;;2.50;1.27;;;17.70;55.70;;;;;;5030544;28;19942;-61
2022/03/14 02:19:18;;;;;;;2.83;1.48;;;17.70;56.30;;;;;;5029481;28;20056;-62
2022/03/14 02:21:44;;;;;;;2.63;1.40;;;17.60;55.60;;;;;;5030836;28;20029;-61
2022/03/14 02:24:11;;;;;;;4.43;1.42;;;17.60;55.70;;;;;;5030560;28;20625;-61
2022/03/14 02:26:41;;;;;;;2.75;1.40;;;17.60;56.40;;;;;;5029326;28;20026;-61
2022/03/14 02:29:07;;;;;;;3.07;1.13;;;17.60;55.70;;;;;;5030451;28;20036;-61
2022/03/14 02:31:36;;;;;;;2.10;1.20;;;17.60;55.70;;;;;;5029833;28;20752;-61
2022/03/14 02:34:03;;;;;;;3.42;1.95;;;17.60;55.80;;;;;;5010518;28;20042;-61
2022/03/14 02:36:29;;;;;;;2.30;1.23;;;17.60;55.80;;;;;;5024223;28;20068;-61
2022/03/14 02:38:54;;;;;;;2.03;1.10;;;17.60;55.80;;;;;;5029092;28;20034;-62
2022/03/14 02:41:23;;;;;;;3.40;1.63;;;17.60;55.80;;;;;;5029335;28;20025;-61
2022/03/14 02:43:48;;;;;;;2.65;1.65;;;17.60;55.90;;;;;;5030392;28;20033;-61
2022/03/14 02:46:15;;;;;;;2.28;1.23;;;17.60;55.90;;;;;;5029914;28;20030;-61
2022/03/14 02:48:41;;;;;;;2.80;1.45;;;17.60;55.90;;;;;;5029582;28;20033;-61
2022/03/14 02:51:06;;;;;;;3.58;1.55;;;17.60;56.00;;;;;;5029601;28;20530;-61
2022/03/14 02:53:32;;;;;;;2.10;1.20;;;17.60;56.00;;;;;;5020370;28;20140;-62
2022/03/14 02:55:58;;;;;;;3.30;1.58;;;17.50;55.90;;;;;;5028069;28;20123;-61
2022/03/14 02:58:25;;;;;;;3.03;1.58;;;17.60;56.10;;;;;;5029937;28;20037;-61
2022/03/14 03:00:52;;;;;;;2.13;1.05;;;17.50;56.10;;;;;;5029182;28;20036;-61
2022/03/14 03:03:18;;;;;;;2.00;1.10;;;17.50;56.10;;;;;;5029651;28;20029;-61
2022/03/14 03:05:44;;;;;;;3.25;1.30;;;17.50;56.00;;;;;;5028865;28;20064;-61
2022/03/14 03:08:11;;;;;;;2.15;1.17;;;17.50;56.00;;;;;;5028827;28;20041;-61
2022/03/14 03:10:37;;;;;;;2.58;1.23;;;17.50;56.10;;;;;;5029449;28;20032;-61
2022/03/14 03:13:03;;;;;;;2.10;1.17;;;17.50;56.20;;;;;;5029064;28;20017;-61
2022/03/14 03:15:29;;;;;;;3.08;1.42;;;17.50;56.20;;;;;;5013422;28;20084;-61
2022/03/14 03:17:56;;;;;;;2.40;1.20;;;17.50;56.30;;;;;;5024039;28;20439;-61
2022/03/14 03:20:22;;;;;;;2.40;1.17;;;17.50;56.30;;;;;;5029277;28;20036;-61
2022/03/14 03:22:49;;;;;;;2.55;1.20;;;17.40;56.30;;;;;;5028984;28;20079;-61
2022/03/14 03:25:15;;;;;;;2.05;1.20;;;17.50;56.40;;;;;;5028986;28;20033;-61
2022/03/14 03:27:41;;;;;;;2.72;1.25;;;17.50;56.40;;;;;;5028616;28;20440;-61
2022/03/14 03:30:08;;;;;;;2.35;1.38;;;17.50;56.30;;;;;;5028606;28;20025;-61
2022/03/14 03:32:34;;;;;;;3.78;1.48;;;17.40;56.40;;;;;;5027987;28;20079;-61
2022/03/14 03:35:00;;;;;;;2.03;1.20;;;17.50;56.50;;;;;;5028974;28;20455;-61
2022/03/14 03:37:25;;;;;;;2.70;1.30;;;17.50;56.50;;;;;;5028393;28;20051;-61
2022/03/14 03:39:51;;;;;;;2.67;1.50;;;17.50;56.50;;;;;;5028312;28;20045;-61
2022/03/14 03:42:17;;;;;;;2.40;1.50;;;17.40;56.50;;;;;;5028346;28;20412;-61
2022/03/14 03:44:43;;;;;;;2.30;1.23;;;17.40;56.50;;;;;;5028834;28;20014;-61
2022/03/14 03:47:09;;;;;;;1.83;0.85;;;17.40;56.60;;;;;;5028593;28;20033;-61
2022/03/14 03:49:35;;;;;;;2.80;1.38;;;17.40;56.60;;;;;;5028120;28;20013;-61
2022/03/14 03:52:01;;;;;;;2.38;1.30;;;17.40;56.50;;;;;;5027982;28;20053;-61
2022/03/14 03:54:26;;;;;;;2.92;1.45;;;17.40;56.60;;;;;;5027175;28;20049;-61
2022/03/14 03:56:52;;;;;;;2.30;1.33;;;17.40;56.60;;;;;;5028907;28;20345;-61
2022/03/14 03:59:17;;;;;;;2.83;1.30;;;17.40;56.70;;;;;;5028311;28;20430;-61
2022/03/14 04:01:43;;;;;;;2.00;1.13;;;17.40;56.80;;;;;;5027416;28;20036;-61
2022/03/14 04:04:09;;;;;;;3.55;1.30;;;17.40;56.80;;;;;;5027649;28;20017;-61
2022/03/14 04:06:36;;;;;;;4.28;1.52;;;17.40;56.90;;;;;;5028083;28;20029;-61
2022/03/14 04:09:03;;;;;;;2.78;1.30;;;17.40;56.80;;;;;;5028132;28;20033;-61
2022/03/14 04:11:29;;;;;;;2.28;1.30;;;17.40;56.80;;;;;;5027676;28;20112;-61
2022/03/14 04:13:58;;;;;;;2.97;1.15;;;17.30;56.80;;;;;;5027897;28;20029;-61
2022/03/14 04:16:26;;;;;;;2.03;1.30;;;17.40;56.90;;;;;;5025840;28;20148;-61
2022/03/14 04:18:53;;;;;;;3.13;1.23;;;17.30;56.80;;;;;;5013886;28;20096;-61
2022/03/14 04:21:20;;;;;;;2.38;1.20;;;17.30;56.90;;;;;;5028725;28;20157;-61
2022/03/14 04:23:46;;;;;;;2.72;1.27;;;17.30;56.80;;;;;;5028242;28;20033;-61
2022/03/14 04:26:12;;;;;;;2.25;1.10;;;17.30;56.80;;;;;;5027481;28;20025;-61
2022/03/14 04:28:40;;;;;;;1.77;1.10;;;17.30;56.90;;;;;;5028044;28;20027;-61
2022/03/14 04:31:07;;;;;;;2.03;1.15;;;17.30;56.90;;;;;;5028266;28;20029;-61
2022/03/14 04:33:33;;;;;;;1.65;1.17;;;17.30;56.90;;;;;;5028239;28;20041;-61
2022/03/14 04:35:59;;;;;;;2.47;1.33;;;17.30;57.00;;;;;;5027582;28;20386;-61
2022/03/14 04:38:25;;;;;;;2.65;1.10;;;17.30;57.00;;;;;;5028047;28;20030;-61
2022/03/14 04:40:51;;;;;;;2.40;1.13;;;17.30;57.00;;;;;;5027794;28;20858;-61
2022/03/14 04:43:17;;;;;;;3.60;1.70;;;17.30;57.00;;;;;;5027068;28;20025;-61
2022/03/14 04:45:43;;;;;;;2.38;1.05;;;17.30;57.00;;;;;;5021396;28;20018;-61
2022/03/14 04:48:09;;;;;;;2.72;1.27;;;17.30;57.00;;;;;;5028191;28;20056;-61
2022/03/14 04:50:38;;;;;;;2.40;1.13;;;17.20;57.00;;;;;;5028382;28;20029;-61
2022/03/14 04:53:06;;;;;;;2.63;1.23;;;17.30;57.10;;;;;;5028842;28;20029;-62
2022/03/14 04:55:31;;;;;;;5.25;1.73;;;16.60;58.70;;;;;;5028528;28;20075;-61
2022/03/14 04:57:57;;;;;;;6.15;2.45;;;16.00;60.20;;;;;;5028456;28;20045;-62
2022/03/14 05:00:23;;;;;;;5.25;2.45;;;15.60;61.30;;;;;;5015749;28;20104;-62
2022/03/14 05:02:48;;;;;;;5.00;2.25;;;15.40;62.40;;;;;;5029758;28;20555;-62
2022/03/14 05:05:14;;;;;;;4.75;2.67;;;15.20;62.50;;;;;;5032584;28;20080;-61
2022/03/14 05:07:41;;;;;;;4.15;2.63;;;14.90;63.80;;;;;;5032214;28;20053;-62
2022/03/14 05:10:10;;;;;;;5.15;2.75;;;14.90;64.30;;;;;;5032632;28;20021;-61
2022/03/14 05:12:35;;;;;;;5.32;2.42;;;14.80;66.30;;;;;;5029287;28;20057;-60
2022/03/14 05:15:02;;;;;;;5.05;3.40;;;14.70;66.70;;;;;;5032484;28;20565;-61
2022/03/14 05:17:30;;;;;;;5.45;2.90;;;14.50;68.10;;;;;;5030810;28;20030;-62
2022/03/14 05:19:56;;;;;;;5.00;3.28;;;14.40;68.80;;;;;;5032057;28;20025;-61
2022/03/14 05:22:22;;;;;;;5.28;3.25;;;14.30;69.70;;;;;;5032194;28;20057;-61
2022/03/14 05:24:48;;;;;;;4.57;3.10;;;14.20;70.20;;;;;;5032900;28;20091;-62
2022/03/14 05:27:14;;;;;;;5.43;3.33;;;14.00;71.20;;;;;;5031853;28;20025;-62
2022/03/14 05:29:39;;;;;;;5.30;3.65;;;14.00;71.60;;;;;;5031846;28;20036;-61
2022/03/14 05:32:05;;;;;;;5.70;3.80;;;13.90;71.60;;;;;;5031095;28;20017;-62
2022/03/14 05:34:31;;;;;;;5.07;3.42;;;13.90;72.20;;;;;;5031619;28;20045;-61
2022/03/14 05:36:58;;;;;;;5.35;3.42;;;13.90;71.90;;;;;;5031810;28;20021;-61
2022/03/14 05:39:23;;;;;;;5.43;3.72;;;13.80;72.40;;;;;;5031972;28;20026;-61
2022/03/14 05:41:49;;;;;;;6.68;3.95;;;13.70;73.10;;;;;;5031729;28;20040;-62
2022/03/14 05:44:14;;;;;;;5.07;3.58;;;13.60;73.40;;;;;;5031995;28;20014;-61
2022/03/14 05:46:40;;;;;;;5.57;3.92;;;13.70;72.90;;;;;;5022700;28;20029;-60
2022/03/14 05:49:06;;;;;;;5.93;4.13;;;13.70;72.60;;;;;;5031469;28;20021;-61
2022/03/14 05:51:34;;;;;;;6.07;4.53;;;13.60;72.70;;;;;;5031454;28;20037;-61
2022/03/14 05:54:00;;;;;;;6.47;5.13;;;13.70;72.40;;;;;;5031105;28;20029;-62
2022/03/14 05:56:26;;;;;;;9.18;4.75;;;13.70;73.30;;;;;;5031507;28;20101;-62
2022/03/14 05:58:51;;;;;;;5.38;4.00;;;14.20;70.10;;;;;;5031416;28;20021;-61
2022/03/14 06:01:17;;;;;;;7.22;4.60;;;15.00;66.70;;;;;;5031946;28;20014;-61
2022/03/14 06:03:43;;;;;;;10.25;6.13;;;15.50;65.00;;;;;;5030903;28;20388;-61
2022/03/14 06:06:08;;;;;;;15.52;4.90;;;15.70;63.90;;;;;;5030954;28;20029;-62
2022/03/14 06:08:34;;;;;;;11.15;5.05;;;15.90;63.50;;;;;;5030958;28;20029;-62
2022/03/14 06:10:59;;;;;;;10.30;4.13;;;15.90;63.00;;;;;;5030450;28;20702;-62
2022/03/14 06:13:25;;;;;;;6.93;3.97;;;16.00;62.80;;;;;;5029460;28;20067;-62
2022/03/14 06:15:51;;;;;;;5.82;3.67;;;16.00;62.80;;;;;;5029502;28;20099;-61
2022/03/14 06:18:17;;;;;;;5.78;3.90;;;16.10;62.70;;;;;;5030989;28;20136;-63
2022/03/14 06:20:43;;;;;;;6.75;3.72;;;16.10;62.50;;;;;;5031100;28;20044;-62
2022/03/14 06:23:08;;;;;;;5.82;3.63;;;16.20;62.40;;;;;;5030082;28;20013;-62
2022/03/14 06:25:36;;;;;;;6.55;3.42;;;16.20;62.40;;;;;;5030762;28;20072;-62
2022/03/14 06:28:01;;;;;;;7.97;3.47;;;16.20;62.20;;;;;;5030208;28;20487;-62
2022/03/14 06:30:27;;;;;;;6.95;3.45;;;16.30;62.30;;;;;;5031328;28;20025;-62
2022/03/14 06:32:53;;;;;;;8.20;3.20;;;16.30;62.20;;;;;;5030731;28;20087;-62
2022/03/14 06:35:20;;;;;;;16.65;3.55;;;16.30;62.10;;;;;;5029019;28;20042;-62
2022/03/14 06:37:46;;;;;;;7.32;3.20;;;16.30;62.10;;;;;;5030314;28;20044;-62
2022/03/14 06:40:12;;;;;;;7.72;3.30;;;16.30;62.00;;;;;;5029675;28;20685;-62
2022/03/14 06:42:39;;;;;;;6.82;2.65;;;16.40;61.90;;;;;;5028703;28;20022;-62
2022/03/14 06:45:05;;;;;;;8.57;2.88;;;16.30;62.00;;;;;;5029735;28;20028;-62
2022/03/14 06:47:32;;;;;;;4.45;2.50;;;16.40;62.20;;;;;;5029185;28;20040;-62
2022/03/14 06:49:58;;;;;;;4.93;2.90;;;16.40;62.00;;;;;;5029401;28;20018;-62
2022/03/14 06:52:23;;;;;;;5.03;2.55;;;16.40;62.00;;;;;;5029177;28;20523;-62
2022/03/14 06:54:49;;;;;;;5.75;2.20;;;16.40;61.90;;;;;;5029522;28;20017;-62
2022/03/14 06:57:15;;;;;;;7.57;2.53;;;16.40;62.00;;;;;;5028854;28;20037;-62
2022/03/14 06:59:40;;;;;;;4.82;2.50;;;16.50;62.00;;;;;;5028386;28;20107;-62
2022/03/14 07:02:07;;;;;;;5.28;2.33;;;16.50;62.00;;;;;;5029987;28;20018;-62
2022/03/14 07:04:34;;;;;;;4.32;2.30;;;16.50;61.90;;;;;;5029590;28;20031;-62
2022/03/14 07:07:01;;;;;;;4.15;2.25;;;16.50;61.90;;;;;;5029904;28;20021;-62
2022/03/14 07:09:27;;;;;;;4.78;2.20;;;16.50;61.70;;;;;;5029181;28;20553;-62
2022/03/14 07:11:52;;;;;;;4.18;2.03;;;16.50;61.90;;;;;;5029492;28;20115;-62
2022/03/14 07:14:22;;;;;;;5.95;1.90;;;16.60;61.80;;;;;;5026269;28;20025;-62
2022/03/14 07:16:50;;;;;;;5.75;2.15;;;16.60;61.70;;;;;;5024841;28;20037;-61
2022/03/14 07:19:16;;;;;;;3.78;2.08;;;16.60;61.70;;;;;;5011405;28;20022;-61
2022/03/14 07:21:42;;;;;;;4.40;1.80;;;16.60;61.70;;;;;;5029821;28;20122;-62
2022/03/14 07:24:08;;;;;;;5.05;1.90;;;16.60;61.70;;;;;;5018692;28;20060;-61
2022/03/14 07:26:33;;;;;;;6.80;1.80;;;16.60;61.70;;;;;;5027130;28;20047;-61
2022/03/14 07:28:59;;;;;;;4.35;1.65;;;16.60;61.50;;;;;;5030409;28;20531;-62
2022/03/14 07:31:25;;;;;;;4.93;1.67;;;16.60;61.60;;;;;;5029428;28;20492;-62
2022/03/14 07:33:51;;;;;;;5.15;2.20;;;16.60;61.40;;;;;;5029271;28;20029;-62
2022/03/14 07:36:18;;;;;;;6.93;2.00;;;16.60;61.50;;;;;;5027595;28;20052;-62
2022/03/14 07:38:44;;;;;;;7.03;2.00;;;16.70;61.30;;;;;;5026621;28;20100;-61
2022/03/14 07:41:10;;;;;;;4.15;1.70;;;16.70;61.50;;;;;;5024396;28;20033;-62
2022/03/14 07:43:40;;;;;;;11.77;2.65;;;16.80;61.50;;;;;;5029619;28;20496;-62
2022/03/14 07:46:06;;;;;;;;;;;16.80;61.60;;;;;;5029819;28;20021;-62
2022/03/14 07:48:34;;;;;;;7.28;3.22;;;16.80;61.50;;;;;;5029079;28;19916;-62
2022/03/14 07:51:00;;;;;;;14.32;2.35;;;16.90;62.20;;;;;;5029596;28;20098;-62
2022/03/14 07:53:25;;;;;;;12.52;2.75;;;17.00;62.20;;;;;;5028772;28;20033;-62
2022/03/14 07:55:52;;;;;;;7.32;2.88;;;17.00;62.10;;;;;;5029462;28;20049;-62
2022/03/14 07:58:18;;;;;;;7.38;3.45;;;17.10;62.40;;;;;;5030178;28;20033;-62
2022/03/14 08:00:44;;;;;;;15.57;8.32;;;17.10;62.80;;;;;;5028476;28;20033;-61
2022/03/14 08:03:09;;;;;;;16.55;9.45;;;16.50;62.90;;;;;;5026513;28;20025;-60
2022/03/14 08:05:35;;;;;;;14.00;10.15;;;15.60;65.10;;;;;;5022540;28;20092;-62
2022/03/14 08:08:03;;;;;;;17.88;10.88;;;15.30;66.40;;;;;;5028578;28;20035;-62
2022/03/14 08:10:30;;;;;;;15.80;11.48;;;15.00;67.00;;;;;;5029394;28;20036;-59
2022/03/14 08:12:56;;;;;;;16.98;11.77;;;14.90;67.40;;;;;;5027728;28;20498;-61
2022/03/14 08:15:38;;;;;;;17.48;13.23;;;14.80;67.60;;;;;;5027193;28;20038;-61
2022/03/14 08:18:07;;;;;;;21.65;13.55;;;14.80;67.70;;;;;;5021374;28;20045;-62
2022/03/14 08:20:33;;;;;;;18.58;13.55;;;14.90;67.40;;;;;;5027383;28;20023;-63
2022/03/14 08:23:02;;;;;;;16.27;13.07;;;14.60;68.20;;;;;;5025957;28;20026;-63
2022/03/14 08:25:28;;;;;;;19.40;13.27;;;14.50;68.80;;;;;;5028354;28;20022;-63
2022/03/14 08:27:55;;;;;;;15.98;12.70;;;14.40;68.50;;;;;;5027409;28;20111;-63
2022/03/14 08:30:23;;;;;;;16.42;11.18;;;15.00;66.40;;;;;;5013540;28;20026;-63
2022/03/14 08:32:51;;;;;;;18.60;12.32;;;15.70;64.10;;;;;;5021699;28;20487;-64
2022/03/14 08:35:20;;;;;;;17.00;11.52;;;16.10;62.80;;;;;;5012299;28;20034;-64
2022/03/14 08:37:48;;;;;;;16.25;10.98;;;16.30;62.00;;;;;;5018254;28;20101;-63
2022/03/14 08:40:16;;;;;;;14.88;10.95;;;16.40;61.70;;;;;;5015531;28;20438;-63
2022/03/14 08:42:44;;;;;;;13.52;10.20;;;16.50;61.40;;;;;;5020544;28;20022;-64
2022/03/14 08:45:10;;;;;;;18.23;9.63;;;16.60;61.40;;;;;;5017694;28;20017;-64
2022/03/14 08:47:36;;;;;;;13.57;9.82;;;16.60;61.20;;;;;;5019359;28;20828;-63
2022/03/14 08:50:07;;;;;;;11.35;8.75;;;16.60;61.10;;;;;;5026226;28;20503;-63
2022/03/14 08:52:33;;;;;;;12.70;9.93;;;16.70;61.20;;;;;;5030826;28;20050;-63
2022/03/14 08:54:59;;;;;;;12.10;8.73;;;16.70;61.30;;;;;;5021430;28;20120;-64
2022/03/14 08:57:25;;;;;;;13.40;8.80;;;16.70;61.40;;;;;;5013787;28;20571;-62
2022/03/14 08:59:52;;;;;;;12.48;8.15;;;16.70;61.30;;;;;;5020397;28;20031;-62
2022/03/14 09:02:17;;;;;;;11.30;8.23;;;16.80;61.50;;;;;;5031403;28;20080;-61
2022/03/14 09:04:43;;;;;;;13.82;8.13;;;16.80;61.40;;;;;;5028556;28;20022;-62
2022/03/14 09:07:09;;;;;;;10.77;8.05;;;16.80;61.50;;;;;;5015907;28;20506;-61
2022/03/14 09:09:34;;;;;;;11.48;8.15;;;16.80;61.50;;;;;;5021159;28;20033;-62
2022/03/14 09:12:01;;;;;;;11.70;7.70;;;16.80;61.60;;;;;;5016668;28;20030;-62
2022/03/14 09:14:27;;;;;;;11.65;7.95;;;16.80;61.70;;;;;;5022493;28;20042;-62
2022/03/14 09:16:52;;;;;;;11.60;7.65;;;16.80;61.60;;;;;;5018336;28;20044;-62
2022/03/14 09:19:18;;;;;;;13.18;7.43;;;16.90;61.80;;;;;;5016783;28;20030;-60
2022/03/14 09:21:44;;;;;;;11.65;7.22;;;16.90;61.80;;;;;;5023123;28;20044;-60
2022/03/14 09:24:10;;;;;;;9.60;6.72;;;16.90;61.40;;;;;;5026168;28;20108;-59
2022/03/14 09:26:37;;;;;;;11.05;7.10;;;16.90;61.30;;;;;;5026401;28;20132;-59
2022/03/14 09:29:04;;;;;;;13.55;7.53;;;16.90;61.10;;;;;;5023291;28;20071;-60
2022/03/14 09:31:30;;;;;;;10.85;6.70;;;16.90;61.20;;;;;;5023901;28;20078;-62
2022/03/14 09:33:56;;;;;;;12.55;6.03;;;16.90;61.20;;;;;;5024210;28;20029;-61
2022/03/14 09:36:23;;;;;;;11.88;6.70;;;16.80;61.30;;;;;;5023870;28;20489;-62
2022/03/14 09:38:48;;;;;;;11.57;6.60;;;16.80;61.30;;;;;;5025532;28;20076;-61
2022/03/14 09:41:18;;;;;;;10.30;7.15;;;16.80;61.30;;;;;;5023657;28;20059;-62
2022/03/14 09:43:46;;;;;;;10.48;7.13;;;16.80;61.40;;;;;;5022567;28;20036;-62
2022/03/14 09:46:12;;;;;;;9.38;6.75;;;16.80;61.30;;;;;;5022657;28;20021;-61
2022/03/14 09:48:40;;;;;;;10.38;6.68;;;16.80;61.40;;;;;;5020300;28;20443;-62
2022/03/14 09:51:06;;;;;;;14.15;6.95;;;16.80;61.40;;;;;;5022388;28;20052;-60
2022/03/14 09:53:33;;;;;;;8.95;6.55;;;16.80;61.40;;;;;;5024091;28;20100;-61
2022/03/14 09:55:59;;;;;;;9.50;6.20;;;16.80;61.60;;;;;;5023021;28;20033;-62
2022/03/14 09:58:24;;;;;;;9.30;6.03;;;16.70;61.50;;;;;;5023628;28;20082;-61
2022/03/14 10:00:50;;;;;;;11.60;7.03;;;16.70;61.70;;;;;;5021994;28;20021;-62
2022/03/14 10:03:18;;;;;;;8.45;6.07;;;16.80;61.50;;;;;;5024376;28;20117;-61
2022/03/14 10:05:44;;;;;;;9.82;6.38;;;16.80;62.10;;;;;;5021525;28;20025;-61
2022/03/14 10:08:11;;;;;;;9.38;6.43;;;16.80;61.40;;;;;;5023048;28;20654;-61
2022/03/14 10:10:37;;;;;;;8.68;5.95;;;16.80;61.40;;;;;;5024070;28;20384;-60
2022/03/14 10:13:05;;;;;;;9.85;6.25;;;16.80;61.30;;;;;;5024858;28;20053;-61
2022/03/14 10:15:32;;;;;;;10.57;6.78;;;16.80;61.30;;;;;;5023259;28;20663;-61
2022/03/14 10:17:58;;;;;;;10.88;6.82;;;16.80;61.30;;;;;;5026092;28;20038;-61
2022/03/14 10:20:25;;;;;;;9.82;6.82;;;16.90;61.30;;;;;;5024319;28;20036;-60
2022/03/14 10:22:52;;;;;;;8.93;5.70;;;16.90;61.30;;;;;;5024368;28;20033;-61
2022/03/14 10:25:21;;;;;;;10.90;6.65;;;16.80;61.20;;;;;;5022256;28;20063;-61
2022/03/14 10:27:54;;;;;;;9.57;6.07;;;16.90;61.20;;;;;;5021608;28;20037;-61
2022/03/14 10:30:29;;;;;;;10.38;6.22;;;16.90;61.10;;;;;;5021729;28;20444;-60
2022/03/14 10:33:13;;;;;;;9.65;6.30;;;16.90;61.20;;;;;;5021212;28;20025;-61
2022/03/14 10:35:41;;;;;;;8.98;5.78;;;16.80;61.30;;;;;;5019183;28;20038;-61
2022/03/14 10:38:10;;;;;;;9.20;6.35;;;16.90;61.10;;;;;;5021267;28;20112;-60
2022/03/14 10:40:41;;;;;;;10.05;7.43;;;16.90;60.90;;;;;;5021331;28;20048;-60
2022/03/14 10:43:20;;;;;;;10.35;6.50;;;16.90;60.60;;;;;;5021928;28;20021;-61
2022/03/14 10:45:46;;;;;;;10.25;6.15;;;17.00;60.90;;;;;;5022001;28;20080;-61
2022/03/14 10:48:11;;;;;;;8.30;6.15;;;17.00;60.60;;;;;;5020439;28;20033;-61
2022/03/14 10:50:38;;;;;;;10.80;5.80;;;17.00;60.70;;;;;;5020866;28;20510;-60
2022/03/14 10:53:11;;;;;;;9.65;6.05;;;17.00;60.70;;;;;;5018580;28;20640;-61
2022/03/14 10:55:48;;;;;;;10.32;6.43;;;17.00;60.60;;;;;;5020069;28;20409;-61
2022/03/14 10:58:23;;;;;;;13.35;7.25;;;17.00;60.80;;;;;;5017947;28;20030;-61
2022/03/14 11:00:50;;;;;;;12.55;6.50;;;17.00;60.80;;;;;;5019121;28;20031;-61
2022/03/14 11:03:23;;;;;;;10.68;6.63;;;17.00;60.70;;;;;;5015344;28;20067;-60
2022/03/14 11:05:50;;;;;;;11.48;7.63;;;17.00;60.70;;;;;;5017065;28;20033;-60
2022/03/14 11:08:30;;;;;;;11.73;6.43;;;17.00;61.50;;;;;;5019070;28;20802;-61
2022/03/14 11:10:58;;;;;;;11.18;7.43;;;17.00;61.10;;;;;;5020148;28;20033;-62
2022/03/14 11:13:24;;;;;;;9.95;7.10;;;17.10;61.50;;;;;;5019307;28;20021;-62
2022/03/14 11:15:50;;;;;;;12.57;6.85;;;17.10;61.30;;;;;;5019965;28;20033;-61
2022/03/14 11:18:21;;;;;;;10.82;6.60;;;17.20;60.80;;;;;;5020164;28;20395;-63
2022/03/14 11:20:47;;;;;;;11.98;6.13;;;17.10;61.20;;;;;;5019408;28;20443;-60
2022/03/14 11:23:14;;;;;;;10.35;7.07;;;17.10;61.30;;;;;;5021849;28;20021;-60
2022/03/14 11:25:44;;;;;;;11.30;6.45;;;17.10;61.90;;;;;;5022571;28;20055;-60
2022/03/14 11:28:16;;;;;;;11.70;7.30;;;17.10;62.00;;;;;;5023173;28;20117;-60
2022/03/14 11:30:47;;;;;;;11.02;6.65;;;17.10;62.30;;;;;;5022503;28;20067;-61
2022/03/14 11:33:14;;;;;;;12.73;7.13;;;17.10;62.20;;;;;;5022730;28;20026;-59
2022/03/14 11:35:42;;;;;;;11.88;7.20;;;17.20;62.10;;;;;;5021758;28;20049;-60
2022/03/14 11:38:08;;;;;;;11.80;6.55;;;17.20;62.40;;;;;;5021339;28;20096;-59
2022/03/14 11:40:36;;;;;;;9.00;6.20;;;17.30;62.50;;;;;;5021416;28;20040;-60
2022/03/14 11:43:02;;;;;;;9.35;5.55;;;17.30;62.40;;;;;;5022185;28;20018;-60
2022/03/14 11:45:30;;;;;;;9.68;5.50;;;17.30;62.70;;;;;;5021707;28;20546;-60
2022/03/14 11:47:57;;;;;;;9.88;6.30;;;17.30;63.40;;;;;;5020236;28;20034;-61
2022/03/14 11:50:22;;;;;;;11.77;5.82;;;17.30;63.10;;;;;;5020516;28;20116;-61
2022/03/14 11:52:53;;;;;;;11.15;5.90;;;17.30;63.10;;;;;;5017026;28;20025;-62
2022/03/14 11:55:27;;;;;;;9.35;5.32;;;17.30;63.10;;;;;;5020128;28;20593;-62
2022/03/14 11:57:53;;;;;;;9.50;5.38;;;17.30;63.80;;;;;;5020741;28;20030;-62
2022/03/14 12:00:21;;;;;;;9.10;5.13;;;17.30;64.00;;;;;;5016985;28;20036;-62
2022/03/14 12:02:48;;;;;;;10.32;5.30;;;17.30;64.40;;;;;;5018556;28;20025;-62
2022/03/14 12:05:13;;;;;;;9.93;5.68;;;17.40;64.20;;;;;;5019347;28;20040;-60
2022/03/14 12:07:39;;;;;;;11.27;5.30;;;17.50;64.10;;;;;;5020914;28;20034;-62
2022/03/14 12:10:31;;;;;;;7.78;4.63;;;17.60;64.20;;;;;;5022864;28;20491;-61
2022/03/14 12:12:58;;;;;;;7.80;4.32;;;17.70;64.00;;;;;;5020042;28;20045;-61
2022/03/14 12:15:37;;;;;;;9.93;5.03;;;17.80;63.70;;;;;;5016857;28;20029;-61
2022/03/14 12:18:26;;;;;;;9.45;5.10;;;17.80;63.70;;;;;;5018402;28;20057;-61
2022/03/14 12:20:53;;;;;;;11.18;5.07;;;17.90;63.10;;;;;;5019444;28;20037;-60
2022/03/14 12:23:23;;;;;;;19.67;10.65;;;18.00;63.10;;;;;;5022015;28;20379;-60
2022/03/14 12:25:49;;;;;;;27.35;16.38;;;18.00;62.80;;;;;;5021418;28;20033;-61
2022/03/14 12:28:33;;;;;;;25.42;16.77;;;18.10;62.80;;;;;;5022360;28;20083;-60
2022/03/14 12:31:10;;;;;;;24.50;14.25;;;18.10;63.20;;;;;;5020411;28;20116;-59
2022/03/14 12:33:38;;;;;;;21.92;13.88;;;18.20;63.20;;;;;;5021005;28;20033;-61
2022/03/14 12:36:19;;;;;;;21.58;13.40;;;18.20;62.90;;;;;;5021186;28;20040;-61
2022/03/14 12:39:05;;;;;;;22.15;12.75;;;18.30;62.50;;;;;;5021694;28;20026;-61
2022/03/14 12:41:31;;;;;;;24.85;13.52;;;18.10;62.90;;;;;;5022006;28;20102;-62